Time;durP1;ratioP1;P1;durP2;ratioP2;P2;SDS_P1;SDS_P2;PMS_P1;PMS_P2;Temp;Humidity;BMP_temperature;BMP_pressure;BME280_temperature;BME280_humidity;BME280_pressure;Samples;Min_cycle;Max_cycle;Signal;HPM_P1;HPM_P2
2021/05/10 00:00:50;;;;;;;1.63;0.70;;;22.10;38.80;;;;;;5034600;28;20374;-63
2021/05/10 00:03:17;;;;;;;1.85;0.40;;;22.10;39.00;;;;;;5034605;28;20928;-64
2021/05/10 00:05:43;;;;;;;1.80;0.60;;;22.10;39.10;;;;;;5034351;28;20473;-64
2021/05/10 00:08:09;;;;;;;1.73;0.70;;;22.10;39.10;;;;;;5034108;28;20477;-64
2021/05/10 00:10:36;;;;;;;2.78;0.50;;;22.10;39.40;;;;;;5033797;28;20390;-63
2021/05/10 00:13:03;;;;;;;1.30;0.70;;;22.00;39.40;;;;;;5034066;28;20403;-63
2021/05/10 00:15:30;;;;;;;1.25;0.60;;;22.10;39.50;;;;;;5034410;28;20407;-64
2021/05/10 00:18:02;;;;;;;1.50;0.70;;;22.10;39.40;;;;;;5016404;28;20419;-63
2021/05/10 00:20:30;;;;;;;1.48;0.60;;;22.00;39.30;;;;;;5033515;28;20380;-67
2021/05/10 00:22:56;;;;;;;1.90;0.60;;;22.00;39.30;;;;;;5034137;28;20395;-64
2021/05/10 00:25:21;;;;;;;1.20;0.60;;;22.00;39.30;;;;;;5034137;28;20410;-64
2021/05/10 00:27:47;;;;;;;1.70;0.70;;;22.00;39.20;;;;;;5016402;28;20403;-63
2021/05/10 00:30:13;;;;;;;1.45;0.50;;;22.00;39.30;;;;;;5033724;28;20452;-64
2021/05/10 00:32:39;;;;;;;0.98;0.55;;;22.00;39.20;;;;;;5033729;28;20802;-64
2021/05/10 00:35:05;;;;;;;1.87;0.60;;;22.00;39.10;;;;;;5033462;28;20383;-64
2021/05/10 00:37:30;;;;;;;0.95;0.55;;;22.00;39.10;;;;;;5033877;28;20454;-63
2021/05/10 00:39:56;;;;;;;1.10;0.50;;;22.00;39.10;;;;;;5016158;28;20426;-65
2021/05/10 00:42:22;;;;;;;1.23;0.50;;;22.00;39.00;;;;;;5033417;28;20441;-63
2021/05/10 00:44:47;;;;;;;1.10;0.50;;;22.00;39.00;;;;;;5033734;28;20921;-63
2021/05/10 00:47:13;;;;;;;1.20;0.50;;;22.00;38.90;;;;;;5015871;28;20431;-63
2021/05/10 00:49:38;;;;;;;1.25;0.60;;;22.00;39.50;;;;;;5033601;28;20433;-63
2021/05/10 00:52:04;;;;;;;1.20;0.50;;;22.00;38.90;;;;;;5033412;28;20410;-63
2021/05/10 00:54:30;;;;;;;0.98;0.50;;;22.00;38.80;;;;;;5032725;28;20394;-63
2021/05/10 00:56:56;;;;;;;1.17;0.60;;;22.00;38.80;;;;;;5033331;28;20407;-63
2021/05/10 00:59:22;;;;;;;1.40;0.50;;;21.90;38.80;;;;;;5015774;28;20830;-63
2021/05/10 01:01:48;;;;;;;0.73;0.45;;;21.90;38.70;;;;;;5033496;28;20752;-63
2021/05/10 01:04:13;;;;;;;0.88;0.47;;;21.90;38.70;;;;;;5033056;28;20384;-64
2021/05/10 01:06:39;;;;;;;1.00;0.60;;;21.90;38.80;;;;;;5033131;28;20710;-64
2021/05/10 01:09:05;;;;;;;1.10;0.50;;;21.90;38.80;;;;;;5033246;28;20383;-63
2021/05/10 01:11:31;;;;;;;1.00;0.57;;;21.90;38.80;;;;;;5033336;28;20402;-64
2021/05/10 01:13:56;;;;;;;1.00;0.60;;;21.90;38.80;;;;;;5032989;28;20399;-63
2021/05/10 01:16:22;;;;;;;1.00;0.50;;;21.90;38.80;;;;;;5032571;28;20425;-64
2021/05/10 01:18:48;;;;;;;0.90;0.43;;;21.90;38.70;;;;;;5033137;28;20383;-63
2021/05/10 01:21:14;;;;;;;1.10;0.50;;;21.90;38.70;;;;;;5032910;28;20399;-64
2021/05/10 01:23:41;;;;;;;0.73;0.50;;;21.90;38.80;;;;;;5033059;28;20403;-64
2021/05/10 01:26:07;;;;;;;0.80;0.50;;;21.90;38.80;;;;;;5032587;28;20392;-63
2021/05/10 01:28:33;;;;;;;0.90;0.47;;;21.80;38.70;;;;;;5032543;28;20387;-64
2021/05/10 01:30:58;;;;;;;0.80;0.40;;;21.80;38.60;;;;;;5032883;28;20519;-63
2021/05/10 01:33:24;;;;;;;1.20;0.60;;;21.80;38.50;;;;;;5032662;28;20443;-63
2021/05/10 01:35:51;;;;;;;0.90;0.50;;;21.80;38.60;;;;;;5032719;28;20434;-63
2021/05/10 01:38:18;;;;;;;1.05;0.50;;;21.80;38.60;;;;;;5031878;28;20415;-64
2021/05/10 01:40:47;;;;;;;1.33;0.60;;;21.80;38.60;;;;;;5014184;28;20475;-65
2021/05/10 01:43:17;;;;;;;1.05;0.50;;;21.80;38.60;;;;;;5032766;28;20828;-63
2021/05/10 01:45:44;;;;;;;1.03;0.53;;;21.80;38.50;;;;;;5032551;28;20380;-63
2021/05/10 01:48:11;;;;;;;0.95;0.40;;;21.80;38.60;;;;;;5032397;28;20422;-63
2021/05/10 01:50:41;;;;;;;0.82;0.50;;;21.80;38.60;;;;;;5031885;28;20437;-64
2021/05/10 01:53:07;;;;;;;0.75;0.40;;;21.80;38.50;;;;;;5032273;28;20442;-64
2021/05/10 01:55:34;;;;;;;0.80;0.40;;;21.80;38.50;;;;;;5032446;28;20901;-64
2021/05/10 01:58:01;;;;;;;1.30;0.50;;;21.80;38.60;;;;;;5032227;28;20436;-63
2021/05/10 02:00:33;;;;;;;0.80;0.50;;;21.80;38.60;;;;;;5031879;28;20387;-64
2021/05/10 02:03:04;;;;;;;0.80;0.50;;;21.80;38.60;;;;;;5032129;28;20419;-64
2021/05/10 02:05:30;;;;;;;0.88;0.50;;;21.80;38.60;;;;;;5031629;28;20941;-63
2021/05/10 02:07:58;;;;;;;0.82;0.45;;;21.70;38.50;;;;;;5032087;28;20482;-63
2021/05/10 02:10:25;;;;;;;0.75;0.47;;;21.70;38.40;;;;;;5031718;28;20388;-64
2021/05/10 02:12:54;;;;;;;0.95;0.60;;;21.70;38.40;;;;;;5031663;28;20447;-63
2021/05/10 02:15:20;;;;;;;1.05;0.60;;;21.70;38.40;;;;;;5032125;28;20390;-64
2021/05/10 02:17:46;;;;;;;0.70;0.50;;;21.70;38.70;;;;;;5031895;28;20411;-63
2021/05/10 02:20:13;;;;;;;1.20;0.50;;;21.80;38.80;;;;;;5031852;28;20383;-63
2021/05/10 02:22:38;;;;;;;1.00;0.50;;;21.90;38.60;;;;;;5031579;28;20391;-64
2021/05/10 02:25:05;;;;;;;0.77;0.40;;;21.90;38.40;;;;;;5031973;28;20406;-64
2021/05/10 02:27:30;;;;;;;1.00;0.60;;;22.00;38.30;;;;;;5031802;28;20826;-64
2021/05/10 02:29:56;;;;;;;1.17;0.60;;;22.10;38.10;;;;;;5031816;28;20391;-64
2021/05/10 02:32:22;;;;;;;0.97;0.40;;;22.10;38.00;;;;;;5031642;28;20395;-64
2021/05/10 02:34:47;;;;;;;0.90;0.60;;;22.20;37.90;;;;;;5031532;28;20384;-64
2021/05/10 02:37:15;;;;;;;0.80;0.50;;;22.20;37.80;;;;;;5031392;28;20429;-63
2021/05/10 02:39:41;;;;;;;0.90;0.50;;;22.20;37.70;;;;;;5031722;28;20860;-63
2021/05/10 02:42:07;;;;;;;0.60;0.40;;;22.30;37.70;;;;;;5031566;28;20851;-63
2021/05/10 02:44:33;;;;;;;0.73;0.45;;;22.30;37.60;;;;;;5031076;28;20410;-64
2021/05/10 02:46:58;;;;;;;0.90;0.40;;;22.30;37.60;;;;;;5031494;28;20422;-63
2021/05/10 02:49:24;;;;;;;0.80;0.40;;;22.30;37.50;;;;;;5031652;28;20395;-63
2021/05/10 02:51:50;;;;;;;1.23;0.57;;;22.40;37.50;;;;;;5013396;28;20417;-63
2021/05/10 02:54:15;;;;;;;0.60;0.40;;;22.40;37.40;;;;;;5030986;28;20421;-63
2021/05/10 02:56:41;;;;;;;0.80;0.40;;;22.40;37.30;;;;;;5030629;28;20975;-64
2021/05/10 02:59:07;;;;;;;1.30;0.50;;;22.50;37.30;;;;;;5031408;28;20434;-63
2021/05/10 03:01:32;;;;;;;0.80;0.40;;;22.50;37.30;;;;;;5031495;28;21053;-63
2021/05/10 03:03:58;;;;;;;1.10;0.50;;;22.50;37.20;;;;;;5031211;28;20398;-63
2021/05/10 03:06:23;;;;;;;0.70;0.40;;;22.50;37.10;;;;;;5031128;28;20886;-64
2021/05/10 03:08:49;;;;;;;0.40;0.33;;;22.50;37.10;;;;;;5013421;28;20520;-63
2021/05/10 03:11:15;;;;;;;0.73;0.35;;;22.50;37.10;;;;;;5031400;28;20391;-63
2021/05/10 03:13:40;;;;;;;0.70;0.40;;;22.50;37.00;;;;;;5031164;28;20425;-63
2021/05/10 03:16:06;;;;;;;0.70;0.40;;;22.60;37.00;;;;;;5032723;28;20476;-63
2021/05/10 03:18:32;;;;;;;0.80;0.40;;;22.60;37.00;;;;;;5034898;28;20486;-64
2021/05/10 03:20:57;;;;;;;0.55;0.40;;;22.60;36.90;;;;;;5035342;28;20394;-64
2021/05/10 03:23:23;;;;;;;1.07;0.40;;;22.60;36.90;;;;;;5035336;28;20394;-63
2021/05/10 03:25:49;;;;;;;0.60;0.40;;;22.60;36.90;;;;;;5035252;28;20410;-64
2021/05/10 03:28:14;;;;;;;0.70;0.40;;;22.60;36.80;;;;;;5035248;28;20383;-66
2021/05/10 03:30:40;;;;;;;0.80;0.40;;;22.60;36.80;;;;;;5034564;28;20390;-66
2021/05/10 03:33:07;;;;;;;0.90;0.50;;;22.60;36.80;;;;;;5035109;28;20387;-64
2021/05/10 03:35:33;;;;;;;0.70;0.40;;;22.60;36.70;;;;;;5034941;28;20490;-63
2021/05/10 03:37:58;;;;;;;0.90;0.40;;;22.70;36.70;;;;;;5034661;28;20847;-63
2021/05/10 03:40:24;;;;;;;0.60;0.33;;;22.70;36.70;;;;;;5034791;28;20470;-63
2021/05/10 03:42:50;;;;;;;0.52;0.40;;;22.70;36.70;;;;;;5034722;28;20428;-64
2021/05/10 03:45:16;;;;;;;0.70;0.40;;;22.70;36.70;;;;;;5034929;28;20401;-64
2021/05/10 03:47:43;;;;;;;0.68;0.40;;;22.70;36.70;;;;;;5034605;28;20391;-63
2021/05/10 03:50:13;;;;;;;0.70;0.40;;;22.70;36.60;;;;;;5034809;28;20390;-64
2021/05/10 03:52:39;;;;;;;0.77;0.40;;;22.70;36.60;;;;;;5034264;28;20390;-64
2021/05/10 03:55:09;;;;;;;0.70;0.40;;;22.70;36.50;;;;;;5034713;28;20391;-64
2021/05/10 03:57:35;;;;;;;0.68;0.50;;;22.70;36.50;;;;;;5034613;28;20454;-63
2021/05/10 04:00:01;;;;;;;0.80;0.50;;;22.70;36.50;;;;;;5034617;28;20391;-63
2021/05/10 04:02:27;;;;;;;0.82;0.35;;;22.70;36.40;;;;;;5034309;28;20394;-63
2021/05/10 04:05:02;;;;;;;1.20;0.40;;;22.70;36.40;;;;;;5034110;28;20411;-63
2021/05/10 04:15:13;;;;;;;1.30;0.40;;;22.70;36.30;;;;;;5034259;28;20397;-64
2021/05/10 04:17:39;;;;;;;0.70;0.40;;;22.80;36.30;;;;;;5034227;28;20419;-63
2021/05/10 04:20:05;;;;;;;0.60;0.40;;;22.80;36.30;;;;;;5034058;28;20402;-63
2021/05/10 04:22:31;;;;;;;0.60;0.40;;;22.70;36.30;;;;;;5033733;28;20395;-65
2021/05/10 04:24:57;;;;;;;0.50;0.30;;;22.70;36.30;;;;;;5034234;28;20414;-63
2021/05/10 04:27:22;;;;;;;0.75;0.40;;;22.70;36.30;;;;;;5033392;28;20402;-64
2021/05/10 04:29:48;;;;;;;0.77;0.40;;;22.70;36.30;;;;;;5016462;28;20402;-64
2021/05/10 04:32:13;;;;;;;0.70;0.40;;;22.70;36.30;;;;;;5031896;28;20398;-67
2021/05/10 04:34:39;;;;;;;0.83;0.40;;;22.80;36.20;;;;;;5033402;28;20545;-69
2021/05/10 04:37:05;;;;;;;0.60;0.40;;;22.80;36.20;;;;;;5033640;28;20620;-64
2021/05/10 04:39:31;;;;;;;1.60;0.40;;;22.90;36.20;;;;;;5033969;28;20456;-65
2021/05/10 04:41:56;;;;;;;1.35;0.40;;;22.90;36.30;;;;;;5033871;28;20395;-64
2021/05/10 04:44:22;;;;;;;1.60;0.30;;;22.80;36.70;;;;;;5033900;28;20431;-63
2021/05/10 04:46:47;;;;;;;1.63;0.50;;;22.80;36.50;;;;;;5033331;28;20405;-63
2021/05/10 04:49:13;;;;;;;1.10;0.50;;;22.80;37.10;;;;;;5034823;28;20422;-63
2021/05/10 04:51:39;;;;;;;1.40;0.53;;;22.80;36.90;;;;;;5033617;28;20433;-63
2021/05/10 04:54:05;;;;;;;1.50;0.60;;;22.80;37.00;;;;;;5032691;28;20394;-78
2021/05/10 04:56:30;;;;;;;2.40;0.60;;;22.80;37.00;;;;;;5015282;28;20415;-63
2021/05/10 04:58:56;;;;;;;1.73;0.55;;;22.80;36.80;;;;;;5033086;28;20867;-63
2021/05/10 05:01:21;;;;;;;2.50;0.70;;;22.80;36.80;;;;;;5033502;28;20398;-63
2021/05/10 05:03:47;;;;;;;1.92;0.60;;;22.80;37.90;;;;;;5033398;28;20410;-63
2021/05/10 05:06:13;;;;;;;2.50;0.60;;;22.90;37.70;;;;;;5033277;28;20388;-63
2021/05/10 05:08:38;;;;;;;3.63;0.90;;;22.90;37.80;;;;;;5032917;28;20391;-63
2021/05/10 05:11:04;;;;;;;2.43;0.50;;;22.90;38.20;;;;;;5033136;28;20383;-63
2021/05/10 05:13:30;;;;;;;2.35;0.70;;;22.90;38.70;;;;;;5033853;28;20771;-63
2021/05/10 05:15:56;;;;;;;3.13;0.70;;;22.90;38.70;;;;;;5033123;28;20445;-63
2021/05/10 05:18:22;;;;;;;2.88;0.70;;;23.00;38.80;;;;;;5033000;28;20451;-63
2021/05/10 05:20:48;;;;;;;3.00;0.60;;;23.00;38.60;;;;;;5032411;28;20872;-64
2021/05/10 05:23:25;;;;;;;4.57;0.70;;;23.00;38.00;;;;;;5032423;28;20468;-63
2021/05/10 05:26:02;;;;;;;4.80;0.70;;;23.00;38.70;;;;;;5032824;28;20391;-64
2021/05/10 05:28:29;;;;;;;5.00;0.70;;;23.10;37.40;;;;;;5032952;28;20429;-64
2021/05/10 05:30:55;;;;;;;2.97;0.60;;;23.10;38.30;;;;;;5032665;28;20396;-64
2021/05/10 05:33:21;;;;;;;3.20;0.70;;;23.10;38.40;;;;;;5015115;28;20395;-64
2021/05/10 05:35:47;;;;;;;4.05;0.60;;;23.10;38.60;;;;;;5032663;28;20426;-64
2021/05/10 05:38:13;;;;;;;5.97;0.90;;;23.10;38.70;;;;;;5032397;28;20411;-62
2021/05/10 05:40:40;;;;;;;4.85;1.00;;;23.20;38.00;;;;;;5031092;28;20398;-66
2021/05/10 05:43:08;;;;;;;2.70;0.60;;;23.20;38.40;;;;;;5032591;28;20405;-62
2021/05/10 05:45:34;;;;;;;3.63;0.80;;;23.10;37.40;;;;;;5032630;28;20441;-61
2021/05/10 05:48:02;;;;;;;4.55;0.70;;;23.10;37.50;;;;;;5032509;28;20790;-61
2021/05/10 05:50:27;;;;;;;7.07;0.77;;;23.10;37.30;;;;;;5032588;28;20387;-61
2021/05/10 05:52:53;;;;;;;5.23;0.70;;;23.10;37.40;;;;;;5032001;28;20392;-66
2021/05/10 05:55:19;;;;;;;4.40;0.80;;;23.10;37.10;;;;;;5031822;28;20870;-64
2021/05/10 05:57:45;;;;;;;4.38;0.70;;;23.10;37.30;;;;;;5038369;28;20442;-62
2021/05/10 06:00:12;;;;;;;7.03;0.90;;;23.10;36.90;;;;;;5021925;28;20381;-76
2021/05/10 06:02:41;;;;;;;3.15;0.70;;;23.00;37.20;;;;;;5040155;28;20391;-62
2021/05/10 06:05:08;;;;;;;3.90;0.70;;;23.10;37.30;;;;;;5042429;28;20380;-61
2021/05/10 06:07:39;;;;;;;5.35;0.77;;;23.10;37.30;;;;;;5040491;28;20890;-61
2021/05/10 06:10:05;;;;;;;4.00;0.70;;;23.10;37.30;;;;;;5041654;28;20457;-76
2021/05/10 06:12:31;;;;;;;2.85;0.80;;;23.10;37.20;;;;;;5042741;28;20417;-66
2021/05/10 06:14:56;;;;;;;2.92;0.70;;;23.10;37.20;;;;;;5039827;28;20901;-73
2021/05/10 06:17:22;;;;;;;4.53;0.70;;;23.10;37.00;;;;;;5041728;28;20920;-63
2021/05/10 06:19:47;;;;;;;3.15;0.60;;;23.10;36.80;;;;;;5040716;28;20392;-62
2021/05/10 06:22:15;;;;;;;6.30;0.80;;;23.10;36.80;;;;;;5042451;28;20389;-66
2021/05/10 06:24:41;;;;;;;2.30;0.60;;;23.20;36.70;;;;;;5039446;28;20385;-66
2021/05/10 06:27:06;;;;;;;2.60;0.60;;;23.10;36.80;;;;;;5039888;28;20916;-63
2021/05/10 06:29:32;;;;;;;1.83;0.50;;;23.10;36.60;;;;;;5042693;28;20885;-61
2021/05/10 06:31:58;;;;;;;2.58;0.60;;;23.20;36.90;;;;;;5045708;28;20869;-61
2021/05/10 06:34:23;;;;;;;0.93;0.50;;;23.20;36.80;;;;;;5051675;28;20881;-61
2021/05/10 06:36:49;;;;;;;2.25;0.60;;;23.20;36.80;;;;;;5050912;28;20414;-61
2021/05/10 06:39:14;;;;;;;1.77;0.60;;;23.20;36.40;;;;;;5051120;28;20389;-61
2021/05/10 06:41:40;;;;;;;3.10;0.57;;;23.30;36.50;;;;;;5051471;28;20459;-76
2021/05/10 06:44:06;;;;;;;2.35;0.70;;;23.30;36.50;;;;;;5051339;28;20381;-73
2021/05/10 06:46:32;;;;;;;1.77;0.50;;;23.40;36.20;;;;;;5051242;28;20397;-61
2021/05/10 06:48:57;;;;;;;1.90;0.50;;;23.40;36.20;;;;;;5051038;28;20389;-62
2021/05/10 06:51:23;;;;;;;1.77;0.50;;;23.50;36.00;;;;;;5051045;28;20397;-61
2021/05/10 06:53:49;;;;;;;1.83;0.50;;;23.50;35.90;;;;;;5051444;28;20432;-62
2021/05/10 06:56:14;;;;;;;1.55;0.40;;;23.60;35.80;;;;;;5051298;28;20433;-61
2021/05/10 06:58:40;;;;;;;1.77;0.57;;;23.60;35.70;;;;;;5051062;28;20389;-61
2021/05/10 07:01:06;;;;;;;2.08;0.50;;;23.60;35.80;;;;;;5051298;28;20901;-61
2021/05/10 07:03:32;;;;;;;1.27;0.60;;;23.70;35.70;;;;;;5051274;28;21019;-76
2021/05/10 07:05:57;;;;;;;0.88;0.57;;;23.70;35.60;;;;;;5051074;28;20393;-65
2021/05/10 07:08:23;;;;;;;1.13;0.55;;;23.70;35.30;;;;;;5045431;28;20467;-62
2021/05/10 07:10:53;;;;;;;1.30;0.60;;;23.80;35.30;;;;;;5034465;28;20475;-65
2021/05/10 07:13:21;;;;;;;2.00;0.63;;;23.80;35.30;;;;;;5034947;28;20413;-62
2021/05/10 07:15:47;;;;;;;2.00;0.60;;;23.80;35.20;;;;;;5038885;28;20395;-63
2021/05/10 07:18:14;;;;;;;1.15;0.50;;;23.80;35.10;;;;;;5040417;28;20419;-65
2021/05/10 07:20:42;;;;;;;1.80;0.50;;;23.80;35.10;;;;;;5040169;28;20753;-67
2021/05/10 07:23:09;;;;;;;0.90;0.40;;;23.90;35.10;;;;;;5021501;28;20775;-63
2021/05/10 07:25:41;;;;;;;1.40;0.60;;;23.90;35.00;;;;;;5041766;28;20391;-63
2021/05/10 07:28:07;;;;;;;1.17;0.43;;;23.90;35.00;;;;;;5037781;28;20419;-61
2021/05/10 07:30:33;;;;;;;1.20;0.50;;;24.00;35.00;;;;;;5040519;28;20399;-62
2021/05/10 07:32:59;;;;;;;1.20;0.50;;;24.00;34.90;;;;;;5041241;28;20393;-62
2021/05/10 07:35:24;;;;;;;1.30;0.50;;;24.00;34.90;;;;;;5040238;28;20875;-63
2021/05/10 07:37:50;;;;;;;1.50;0.50;;;24.10;35.60;;;;;;5024326;28;20844;-62
2021/05/10 07:40:20;;;;;;;1.73;0.50;;;24.10;35.00;;;;;;5018543;28;20392;-62
2021/05/10 07:42:46;;;;;;;0.85;0.50;;;24.10;35.00;;;;;;5030535;28;20402;-64
2021/05/10 07:45:12;;;;;;;1.70;0.50;;;24.10;35.00;;;;;;5030873;28;20387;-62
2021/05/10 07:47:38;;;;;;;2.13;0.50;;;24.20;35.00;;;;;;5040401;28;20433;-61
2021/05/10 07:50:04;;;;;;;1.80;0.57;;;24.20;35.10;;;;;;5038552;28;20391;-62
2021/05/10 07:52:30;;;;;;;1.73;0.60;;;24.30;35.10;;;;;;5039443;28;20901;-62
2021/05/10 07:54:56;;;;;;;1.40;0.50;;;24.30;34.90;;;;;;5038014;28;20391;-64
2021/05/10 07:57:22;;;;;;;1.00;0.50;;;24.40;35.10;;;;;;5037855;28;20771;-65
2021/05/10 07:59:49;;;;;;;1.13;0.50;;;24.40;34.90;;;;;;5037784;28;20399;-62
2021/05/10 08:02:15;;;;;;;1.60;0.40;;;24.40;34.90;;;;;;5038346;28;20583;-62
2021/05/10 08:04:41;;;;;;;1.43;0.50;;;24.40;34.90;;;;;;5043209;28;20515;-62
2021/05/10 08:07:17;;;;;;;2.35;0.40;;;24.50;34.90;;;;;;5041845;28;20844;-62
2021/05/10 08:09:43;;;;;;;1.20;0.50;;;24.50;34.80;;;;;;5037380;28;20394;-62
2021/05/10 08:12:10;;;;;;;1.80;0.50;;;24.60;34.80;;;;;;5054215;28;20409;-63
2021/05/10 08:14:35;;;;;;;1.13;0.40;;;24.60;34.70;;;;;;5054441;28;20456;-62
2021/05/10 08:17:02;;;;;;;1.90;0.50;;;24.60;34.70;;;;;;5053514;28;20552;-63
2021/05/10 08:19:29;;;;;;;0.90;0.40;;;24.60;34.60;;;;;;5054184;28;20441;-62
2021/05/10 08:21:57;;;;;;;0.70;0.40;;;24.60;34.70;;;;;;5054079;28;20381;-62
2021/05/10 08:24:23;;;;;;;0.98;0.57;;;24.60;34.50;;;;;;5053982;28;20385;-63
2021/05/10 08:26:48;;;;;;;0.82;0.40;;;24.60;34.50;;;;;;5053479;28;20381;-62
2021/05/10 08:29:14;;;;;;;1.00;0.50;;;24.70;34.50;;;;;;5053954;28;20412;-62
2021/05/10 08:31:40;;;;;;;0.90;0.40;;;24.70;34.40;;;;;;5054026;28;20480;-63
2021/05/10 08:34:06;;;;;;;1.37;0.63;;;24.70;34.40;;;;;;5053825;28;20472;-62
2021/05/10 08:36:32;;;;;;;1.05;0.40;;;24.80;34.40;;;;;;5053836;28;20734;-64
2021/05/10 08:38:57;;;;;;;1.67;0.60;;;24.80;34.40;;;;;;5053190;28;20480;-62
2021/05/10 08:41:23;;;;;;;1.63;0.70;;;24.70;34.40;;;;;;5035954;28;20422;-62
2021/05/10 08:43:49;;;;;;;1.48;0.50;;;24.70;34.40;;;;;;5035941;28;20389;-66
2021/05/10 08:46:14;;;;;;;1.30;0.60;;;24.80;34.40;;;;;;5035808;28;20456;-62
2021/05/10 08:48:40;;;;;;;1.40;0.50;;;24.80;34.40;;;;;;5054041;28;20390;-69
2021/05/10 08:51:06;;;;;;;3.08;0.60;;;24.80;34.30;;;;;;5053823;28;20377;-78
2021/05/10 08:53:40;;;;;;;3.27;0.63;;;24.90;34.60;;;;;;5053571;28;20398;-77
2021/05/10 08:56:07;;;;;;;4.45;0.68;;;24.90;34.90;;;;;;5053627;28;20385;-78
2021/05/10 08:58:43;;;;;;;1.95;0.60;;;24.90;34.90;;;;;;5053498;28;20413;-77
2021/05/10 09:01:11;;;;;;;2.07;0.60;;;25.00;34.70;;;;;;5053510;28;20431;-78
2021/05/10 09:03:42;;;;;;;2.70;0.50;;;25.10;34.50;;;;;;5053547;28;20495;-77
2021/05/10 09:06:12;;;;;;;1.60;0.50;;;25.10;34.40;;;;;;5035730;28;20829;-77
2021/05/10 09:08:42;;;;;;;4.07;0.77;;;25.10;34.20;;;;;;5053355;28;20386;-78
2021/05/10 09:11:16;;;;;;;2.00;0.68;;;25.20;34.60;;;;;;5034080;28;20402;-77
2021/05/10 09:13:44;;;;;;;2.55;0.60;;;25.20;34.40;;;;;;5034954;28;20909;-71
2021/05/10 09:16:12;;;;;;;2.28;0.50;;;25.20;34.40;;;;;;5053068;28;20409;-66
2021/05/10 09:18:38;;;;;;;2.23;0.50;;;25.30;35.20;;;;;;5035233;28;20420;-79
2021/05/10 09:21:15;;;;;;;3.15;0.70;;;25.30;34.50;;;;;;5053074;28;20388;-75
2021/05/10 09:23:41;;;;;;;3.25;0.60;;;25.30;34.40;;;;;;5053451;28;20421;-78
2021/05/10 09:26:07;;;;;;;2.35;0.50;;;25.40;34.30;;;;;;5053184;28;20432;-78
2021/05/10 09:28:41;;;;;;;1.35;0.60;;;25.40;34.10;;;;;;5053358;28;20389;-78
2021/05/10 09:31:09;;;;;;;3.03;0.57;;;25.40;34.00;;;;;;5052521;28;20386;-78
2021/05/10 09:33:41;;;;;;;1.83;0.60;;;25.40;34.00;;;;;;5053214;28;20425;-77
2021/05/10 09:36:07;;;;;;;1.87;0.50;;;25.40;33.90;;;;;;5053312;28;20546;-78
2021/05/10 09:38:38;;;;;;;1.70;0.50;;;25.40;33.90;;;;;;5052778;28;20453;-74
2021/05/10 09:41:06;;;;;;;2.53;0.60;;;25.50;33.80;;;;;;5052200;28;20390;-77
2021/05/10 09:43:35;;;;;;;2.00;0.65;;;25.50;33.80;;;;;;5052812;28;20488;-78
2021/05/10 09:46:10;;;;;;;1.77;0.60;;;25.50;33.70;;;;;;5052693;28;20377;-77
2021/05/10 09:48:38;;;;;;;1.30;0.50;;;25.60;33.60;;;;;;5034635;28;20465;-77
2021/05/10 09:51:08;;;;;;;0.95;0.50;;;25.60;33.70;;;;;;5052082;28;20428;-75
2021/05/10 09:53:42;;;;;;;1.00;0.50;;;25.60;33.70;;;;;;5052470;28;20424;-77
2021/05/10 09:56:12;;;;;;;1.03;0.40;;;25.60;33.60;;;;;;5034588;28;20401;-76
2021/05/10 09:58:46;;;;;;;1.10;0.60;;;25.60;33.40;;;;;;5052425;28;20405;-62
2021/05/10 10:01:12;;;;;;;1.20;0.60;;;25.70;33.50;;;;;;5034219;28;21019;-62
2021/05/10 10:03:40;;;;;;;1.05;0.57;;;25.70;33.40;;;;;;5051909;28;20475;-71
2021/05/10 10:06:19;;;;;;;1.60;0.60;;;25.70;33.40;;;;;;5034533;28;20393;-61
2021/05/10 10:08:50;;;;;;;1.30;0.43;;;25.70;33.40;;;;;;5052181;28;20389;-64
2021/05/10 10:11:20;;;;;;;0.88;0.50;;;25.80;33.30;;;;;;5051823;28;20512;-62
2021/05/10 10:13:47;;;;;;;0.70;0.40;;;25.80;33.20;;;;;;5051844;28;20459;-62
2021/05/10 10:16:15;;;;;;;1.40;0.50;;;25.80;33.20;;;;;;5052113;28;20481;-64
2021/05/10 10:18:42;;;;;;;1.50;0.50;;;25.80;33.30;;;;;;5051559;28;20440;-62
2021/05/10 10:21:09;;;;;;;0.80;0.40;;;25.80;33.20;;;;;;5033684;28;20388;-63
2021/05/10 10:23:36;;;;;;;1.50;0.50;;;25.90;33.20;;;;;;5052368;28;20480;-77
2021/05/10 10:26:06;;;;;;;0.80;0.50;;;25.90;33.30;;;;;;5038941;28;20394;-73
2021/05/10 10:28:34;;;;;;;0.90;0.50;;;25.90;33.10;;;;;;5032178;28;20502;-78
2021/05/10 10:31:06;;;;;;;3.08;0.70;;;25.90;33.10;;;;;;5031653;28;20394;-76
2021/05/10 10:33:41;;;;;;;0.80;0.45;;;26.00;33.20;;;;;;5036939;28;20397;-71
2021/05/10 10:36:16;;;;;;;1.55;0.60;;;26.00;33.20;;;;;;5037805;28;20399;-75
2021/05/10 10:38:42;;;;;;;1.30;0.60;;;26.00;33.00;;;;;;5026602;28;20781;-77
2021/05/10 10:41:22;;;;;;;1.23;0.52;;;26.10;33.00;;;;;;5036298;28;20398;-70
2021/05/10 10:43:49;;;;;;;1.50;0.55;;;26.10;33.00;;;;;;5038297;28;20485;-65
2021/05/10 10:46:20;;;;;;;1.73;0.63;;;26.20;33.10;;;;;;5041473;28;20389;-66
2021/05/10 10:48:47;;;;;;;0.95;0.50;;;26.20;33.00;;;;;;5039294;28;20391;-70
2021/05/10 10:51:15;;;;;;;1.00;0.47;;;26.20;32.90;;;;;;5022895;28;20497;-72
2021/05/10 10:53:45;;;;;;;0.95;0.50;;;26.20;32.80;;;;;;5041568;28;20873;-76
2021/05/10 10:56:12;;;;;;;0.80;0.50;;;26.30;32.90;;;;;;5041042;28;20385;-75
2021/05/10 10:58:41;;;;;;;2.05;0.55;;;26.30;32.80;;;;;;5039813;28;20421;-72
2021/05/10 11:01:23;;;;;;;2.03;0.50;;;26.40;32.90;;;;;;5040844;28;20386;-78
2021/05/10 11:03:49;;;;;;;1.63;0.50;;;26.40;32.90;;;;;;5028010;28;20389;-71
2021/05/10 11:06:15;;;;;;;3.00;0.50;;;26.50;33.10;;;;;;5040199;28;20387;-71
2021/05/10 11:08:48;;;;;;;3.17;0.60;;;26.40;34.10;;;;;;5042018;28;20388;-67
2021/05/10 11:11:33;;;;;;;1.95;0.50;;;26.40;33.80;;;;;;5041638;28;20447;-64
2021/05/10 11:14:01;;;;;;;2.42;0.50;;;26.30;32.90;;;;;;5002333;28;20417;-71
2021/05/10 11:16:47;;;;;;;5.23;0.80;;;26.10;32.70;;;;;;5003872;28;20827;-73
2021/05/10 11:19:30;;;;;;;3.60;0.70;;;26.00;33.40;;;;;;4998673;28;20884;-73
2021/05/10 11:21:58;;;;;;;4.07;0.50;;;25.90;33.60;;;;;;5019089;28;20555;-74
2021/05/10 11:24:32;;;;;;;4.40;0.90;;;25.80;33.40;;;;;;5001454;28;20908;-64
2021/05/10 11:27:01;;;;;;;4.18;0.90;;;25.70;34.10;;;;;;4994738;28;20471;-76
2021/05/10 11:29:27;;;;;;;4.18;0.75;;;25.70;35.10;;;;;;5021162;28;20391;-70
2021/05/10 11:31:58;;;;;;;6.22;1.42;;;25.80;34.40;;;;;;5019788;28;20480;-64
2021/05/10 11:34:25;;;;;;;5.35;0.70;;;25.70;34.40;;;;;;5021477;28;20457;-64
2021/05/10 11:36:52;;;;;;;6.32;0.82;;;25.60;34.30;;;;;;5001452;28;20447;-66
2021/05/10 11:39:24;;;;;;;8.85;0.90;;;25.70;34.30;;;;;;5002018;28;20801;-63
2021/05/10 11:41:56;;;;;;;3.13;0.70;;;25.70;34.20;;;;;;5019866;28;20396;-69
2021/05/10 11:44:30;;;;;;;3.45;0.70;;;25.70;34.10;;;;;;5006842;28;20421;-63
2021/05/10 11:46:57;;;;;;;2.90;0.90;;;25.70;33.80;;;;;;5022099;28;20475;-63
2021/05/10 11:49:31;;;;;;;4.43;0.70;;;25.70;33.70;;;;;;5025517;28;20472;-64
2021/05/10 11:51:59;;;;;;;5.63;0.80;;;25.70;33.90;;;;;;5023499;28;20387;-63
2021/05/10 11:54:26;;;;;;;2.60;0.68;;;25.70;33.80;;;;;;5024630;28;20388;-71
2021/05/10 11:56:54;;;;;;;3.63;0.70;;;25.60;33.90;;;;;;5022753;28;20466;-65
2021/05/10 12:02:10;;;;;;;1.73;0.80;;;25.60;33.70;;;;;;5022937;28;20400;-66
2021/05/10 12:04:37;;;;;;;2.70;0.70;;;25.60;33.70;;;;;;5017577;28;20395;-64
2021/05/10 12:07:04;;;;;;;2.90;0.60;;;25.60;33.70;;;;;;5024034;28;20769;-77
2021/05/10 12:09:49;;;;;;;2.10;0.70;;;25.60;33.70;;;;;;5024242;28;20410;-68
2021/05/10 12:12:18;;;;;;;3.03;0.70;;;25.50;33.70;;;;;;5027086;28;20763;-66
2021/05/10 12:14:49;;;;;;;2.25;0.60;;;25.50;33.70;;;;;;5042034;28;20879;-64
2021/05/10 12:17:17;;;;;;;2.43;0.70;;;25.50;33.70;;;;;;5026449;28;20430;-64
2021/05/10 12:19:58;;;;;;;2.60;0.70;;;25.50;33.70;;;;;;5042006;28;20438;-63
2021/05/10 12:22:38;;;;;;;1.50;0.60;;;25.50;33.70;;;;;;5043475;28;20448;-62
2021/05/10 12:25:13;;;;;;;2.60;0.80;;;25.40;33.60;;;;;;5043301;28;20405;-64
2021/05/10 12:27:40;;;;;;;1.50;0.65;;;25.40;33.70;;;;;;5043307;28;20405;-63
2021/05/10 12:30:30;;;;;;;1.75;0.70;;;25.50;33.60;;;;;;5041563;28;20393;-65
2021/05/10 12:33:02;;;;;;;1.50;0.60;;;25.40;33.50;;;;;;5040890;28;20787;-64
2021/05/10 12:35:33;;;;;;;1.70;0.60;;;25.40;33.70;;;;;;5024157;28;20391;-67
2021/05/10 12:38:00;;;;;;;2.13;0.60;;;25.50;33.70;;;;;;5042267;28;20423;-62
2021/05/10 12:40:29;;;;;;;2.08;0.90;;;25.40;33.60;;;;;;5025784;28;20440;-63
2021/05/10 12:43:07;;;;;;;1.35;0.50;;;25.40;33.60;;;;;;5042297;28;20399;-64
2021/05/10 12:45:34;;;;;;;2.28;0.70;;;25.40;33.50;;;;;;5039555;28;20867;-63
2021/05/10 12:48:20;;;;;;;2.15;0.70;;;25.50;33.60;;;;;;5023176;28;20407;-66
2021/05/10 12:50:52;;;;;;;2.28;0.73;;;25.40;33.40;;;;;;5034535;28;20794;-68
2021/05/10 12:53:36;;;;;;;3.03;0.63;;;25.40;33.50;;;;;;5041627;28;20901;-63
2021/05/10 12:56:10;;;;;;;2.50;0.68;;;25.40;33.70;;;;;;5039854;28;20448;-63
2021/05/10 12:58:38;;;;;;;1.67;0.60;;;25.40;33.70;;;;;;5038792;28;20414;-63
2021/05/10 13:01:14;;;;;;;1.70;0.70;;;25.40;33.80;;;;;;5036539;28;20472;-64